sensor_id;sensor_type;location;lat;lon;timestamp;temperature;humidity
12682;DHT22;6405;59.208;18.216;2022-12-20T00:01:23;2.00;99.90
12682;DHT22;6405;59.208;18.216;2022-12-20T00:03:53;2.00;99.90
12682;DHT22;6405;59.208;18.216;2022-12-20T00:06:19;2.00;99.90
12682;DHT22;6405;59.208;18.216;2022-12-20T00:08:46;2.00;99.90
12682;DHT22;6405;59.208;18.216;2022-12-20T00:11:13;2.00;99.90
12682;DHT22;6405;59.208;18.216;2022-12-20T00:13:40;2.00;99.90
12682;DHT22;6405;59.208;18.216;2022-12-20T00:16:09;2.00;99.90
12682;DHT22;6405;59.208;18.216;2022-12-20T00:18:38;2.00;99.90
12682;DHT22;6405;59.208;18.216;2022-12-20T00:21:06;2.00;99.90
12682;DHT22;6405;59.208;18.216;2022-12-20T00:23:34;2.00;99.90
12682;DHT22;6405;59.208;18.216;2022-12-20T00:26:15;2.00;99.90
12682;DHT22;6405;59.208;18.216;2022-12-20T00:28:43;2.00;99.90
12682;DHT22;6405;59.208;18.216;2022-12-20T00:31:13;2.10;99.90
12682;DHT22;6405;59.208;18.216;2022-12-20T00:33:45;2.00;99.90
12682;DHT22;6405;59.208;18.216;2022-12-20T00:36:15;2.00;99.90
12682;DHT22;6405;59.208;18.216;2022-12-20T00:38:45;2.00;99.90
12682;DHT22;6405;59.208;18.216;2022-12-20T00:41:17;2.00;99.90
12682;DHT22;6405;59.208;18.216;2022-12-20T00:43:44;2.00;99.90
12682;DHT22;6405;59.208;18.216;2022-12-20T00:46:12;1.90;99.90
12682;DHT22;6405;59.208;18.216;2022-12-20T00:48:40;1.90;99.90
12682;DHT22;6405;59.208;18.216;2022-12-20T00:51:10;1.90;99.90
12682;DHT22;6405;59.208;18.216;2022-12-20T00:53:37;1.90;99.90
12682;DHT22;6405;59.208;18.216;2022-12-20T00:56:06;1.90;99.90
12682;DHT22;6405;59.208;18.216;2022-12-20T00:58:34;1.90;99.90
12682;DHT22;6405;59.208;18.216;2022-12-20T01:01:02;1.90;99.90
12682;DHT22;6405;59.208;18.216;2022-12-20T01:03:29;1.90;99.90
12682;DHT22;6405;59.208;18.216;2022-12-20T01:05:59;1.90;99.90
12682;DHT22;6405;59.208;18.216;2022-12-20T01:08:29;1.90;99.90
12682;DHT22;6405;59.208;18.216;2022-12-20T01:11:17;1.90;99.90
12682;DHT22;6405;59.208;18.216;2022-12-20T01:13:47;1.80;99.90
12682;DHT22;6405;59.208;18.216;2022-12-20T01:16:20;1.80;99.90
12682;DHT22;6405;59.208;18.216;2022-12-20T01:18:49;1.80;99.90
12682;DHT22;6405;59.208;18.216;2022-12-20T01:21:17;1.80;99.90
12682;DHT22;6405;59.208;18.216;2022-12-20T01:23:44;1.80;99.90
12682;DHT22;6405;59.208;18.216;2022-12-20T01:26:16;1.80;99.90
12682;DHT22;6405;59.208;18.216;2022-12-20T01:28:45;1.80;99.90
12682;DHT22;6405;59.208;18.216;2022-12-20T01:31:16;1.80;99.90
12682;DHT22;6405;59.208;18.216;2022-12-20T01:33:45;1.80;99.90
12682;DHT22;6405;59.208;18.216;2022-12-20T01:36:15;1.70;99.90
12682;DHT22;6405;59.208;18.216;2022-12-20T01:38:43;1.70;99.90
12682;DHT22;6405;59.208;18.216;2022-12-20T01:41:30;1.70;99.90
12682;DHT22;6405;59.208;18.216;2022-12-20T01:44:00;1.70;99.90
12682;DHT22;6405;59.208;18.216;2022-12-20T01:46:30;1.70;99.90
12682;DHT22;6405;59.208;18.216;2022-12-20T01:54:45;1.60;99.90
12682;DHT22;6405;59.208;18.216;2022-12-20T01:57:30;1.60;99.90
12682;DHT22;6405;59.208;18.216;2022-12-20T01:59:58;1.60;99.90
12682;DHT22;6405;59.208;18.216;2022-12-20T02:02:25;1.50;99.90
12682;DHT22;6405;59.208;18.216;2022-12-20T02:04:53;1.50;99.90
12682;DHT22;6405;59.208;18.216;2022-12-20T02:07:24;1.50;99.90
12682;DHT22;6405;59.208;18.216;2022-12-20T02:09:53;1.50;99.90
12682;DHT22;6405;59.208;18.216;2022-12-20T02:12:23;1.40;99.90
12682;DHT22;6405;59.208;18.216;2022-12-20T02:17:56;1.40;99.90
12682;DHT22;6405;59.208;18.216;2022-12-20T02:23:40;1.40;99.90
12682;DHT22;6405;59.208;18.216;2022-12-20T02:29:32;1.40;99.90
12682;DHT22;6405;59.208;18.216;2022-12-20T02:32:16;1.40;99.90
12682;DHT22;6405;59.208;18.216;2022-12-20T02:34:45;1.40;99.90
12682;DHT22;6405;59.208;18.216;2022-12-20T02:37:12;1.40;99.90
12682;DHT22;6405;59.208;18.216;2022-12-20T02:39:40;1.40;99.90
12682;DHT22;6405;59.208;18.216;2022-12-20T02:42:14;1.40;99.90
12682;DHT22;6405;59.208;18.216;2022-12-20T02:44:44;1.30;99.90
12682;DHT22;6405;59.208;18.216;2022-12-20T02:50:26;1.30;99.90
12682;DHT22;6405;59.208;18.216;2022-12-20T02:52:53;1.30;99.90
12682;DHT22;6405;59.208;18.216;2022-12-20T02:55:23;1.30;99.90
12682;DHT22;6405;59.208;18.216;2022-12-20T02:57:58;1.30;99.90
12682;DHT22;6405;59.208;18.216;2022-12-20T03:00:29;1.30;99.90
12682;DHT22;6405;59.208;18.216;2022-12-20T03:02:57;1.30;99.90
12682;DHT22;6405;59.208;18.216;2022-12-20T03:05:45;1.30;99.90
12682;DHT22;6405;59.208;18.216;2022-12-20T03:08:13;1.20;99.90
12682;DHT22;6405;59.208;18.216;2022-12-20T03:10:41;1.30;99.90
12682;DHT22;6405;59.208;18.216;2022-12-20T03:13:09;1.20;99.90
12682;DHT22;6405;59.208;18.216;2022-12-20T03:15:36;1.30;99.90
12682;DHT22;6405;59.208;18.216;2022-12-20T03:18:05;1.30;99.90
12682;DHT22;6405;59.208;18.216;2022-12-20T03:20:31;1.20;99.90
12682;DHT22;6405;59.208;18.216;2022-12-20T03:22:59;1.30;99.90
12682;DHT22;6405;59.208;18.216;2022-12-20T03:25:26;1.20;99.90
12682;DHT22;6405;59.208;18.216;2022-12-20T03:27:53;1.20;99.90
12682;DHT22;6405;59.208;18.216;2022-12-20T03:30:20;1.20;99.90
12682;DHT22;6405;59.208;18.216;2022-12-20T03:32:47;1.20;99.90
12682;DHT22;6405;59.208;18.216;2022-12-20T03:35:13;1.20;99.90
12682;DHT22;6405;59.208;18.216;2022-12-20T03:37:41;1.20;99.90
12682;DHT22;6405;59.208;18.216;2022-12-20T03:40:09;1.20;99.90
12682;DHT22;6405;59.208;18.216;2022-12-20T03:42:36;1.20;99.90
12682;DHT22;6405;59.208;18.216;2022-12-20T03:45:03;1.20;99.90
12682;DHT22;6405;59.208;18.216;2022-12-20T03:47:30;1.20;99.90
12682;DHT22;6405;59.208;18.216;2022-12-20T03:49:57;1.20;99.90
12682;DHT22;6405;59.208;18.216;2022-12-20T03:52:24;1.20;99.90
12682;DHT22;6405;59.208;18.216;2022-12-20T03:54:52;1.20;99.90
12682;DHT22;6405;59.208;18.216;2022-12-20T03:57:19;1.30;99.90
12682;DHT22;6405;59.208;18.216;2022-12-20T03:59:47;1.20;99.90
12682;DHT22;6405;59.208;18.216;2022-12-20T04:02:14;1.20;99.90
12682;DHT22;6405;59.208;18.216;2022-12-20T04:04:41;1.20;99.90
12682;DHT22;6405;59.208;18.216;2022-12-20T04:07:07;1.20;99.90
12682;DHT22;6405;59.208;18.216;2022-12-20T04:09:34;1.20;99.90
12682;DHT22;6405;59.208;18.216;2022-12-20T04:12:01;1.30;99.90
12682;DHT22;6405;59.208;18.216;2022-12-20T04:14:27;1.20;99.90
12682;DHT22;6405;59.208;18.216;2022-12-20T04:16:56;1.20;99.90
12682;DHT22;6405;59.208;18.216;2022-12-20T04:19:23;1.20;99.90
12682;DHT22;6405;59.208;18.216;2022-12-20T04:21:50;1.20;99.90
12682;DHT22;6405;59.208;18.216;2022-12-20T04:24:16;1.20;99.90
12682;DHT22;6405;59.208;18.216;2022-12-20T04:26:43;1.20;99.90
12682;DHT22;6405;59.208;18.216;2022-12-20T04:29:10;1.20;99.90
12682;DHT22;6405;59.208;18.216;2022-12-20T04:31:37;1.20;99.90
12682;DHT22;6405;59.208;18.216;2022-12-20T04:34:04;1.20;99.90
12682;DHT22;6405;59.208;18.216;2022-12-20T04:36:32;1.20;99.90
12682;DHT22;6405;59.208;18.216;2022-12-20T04:38:59;1.20;99.90
12682;DHT22;6405;59.208;18.216;2022-12-20T04:41:26;1.20;99.90
12682;DHT22;6405;59.208;18.216;2022-12-20T04:43:54;1.20;99.90
12682;DHT22;6405;59.208;18.216;2022-12-20T04:46:22;1.20;99.90
12682;DHT22;6405;59.208;18.216;2022-12-20T04:48:50;1.20;99.90
12682;DHT22;6405;59.208;18.216;2022-12-20T04:51:17;1.20;99.90
12682;DHT22;6405;59.208;18.216;2022-12-20T04:53:44;1.20;99.90
12682;DHT22;6405;59.208;18.216;2022-12-20T04:56:19;1.20;99.90
12682;DHT22;6405;59.208;18.216;2022-12-20T04:58:49;1.20;99.90
12682;DHT22;6405;59.208;18.216;2022-12-20T05:01:18;1.20;99.90
12682;DHT22;6405;59.208;18.216;2022-12-20T05:03:46;1.20;99.90
12682;DHT22;6405;59.208;18.216;2022-12-20T05:06:14;1.20;99.90
12682;DHT22;6405;59.208;18.216;2022-12-20T05:08:40;1.20;99.90
12682;DHT22;6405;59.208;18.216;2022-12-20T05:11:07;1.20;99.90
12682;DHT22;6405;59.208;18.216;2022-12-20T05:13:35;1.20;99.90
12682;DHT22;6405;59.208;18.216;2022-12-20T05:16:02;1.20;99.90
12682;DHT22;6405;59.208;18.216;2022-12-20T05:18:29;1.20;99.90
12682;DHT22;6405;59.208;18.216;2022-12-20T05:20:58;1.20;99.90
12682;DHT22;6405;59.208;18.216;2022-12-20T05:23:43;1.30;99.90
12682;DHT22;6405;59.208;18.216;2022-12-20T05:26:36;1.20;99.90
12682;DHT22;6405;59.208;18.216;2022-12-20T05:29:05;1.20;99.90
12682;DHT22;6405;59.208;18.216;2022-12-20T05:31:32;1.30;99.90
12682;DHT22;6405;59.208;18.216;2022-12-20T05:33:59;1.20;99.90
12682;DHT22;6405;59.208;18.216;2022-12-20T05:36:26;1.20;99.90
12682;DHT22;6405;59.208;18.216;2022-12-20T05:38:52;1.20;99.90
12682;DHT22;6405;59.208;18.216;2022-12-20T05:41:19;1.30;99.90
12682;DHT22;6405;59.208;18.216;2022-12-20T05:43:48;1.30;99.90
12682;DHT22;6405;59.208;18.216;2022-12-20T05:46:14;1.30;99.90
12682;DHT22;6405;59.208;18.216;2022-12-20T05:48:41;1.30;99.90
12682;DHT22;6405;59.208;18.216;2022-12-20T05:51:08;1.30;99.90
12682;DHT22;6405;59.208;18.216;2022-12-20T05:53:35;1.30;99.90
12682;DHT22;6405;59.208;18.216;2022-12-20T05:56:01;1.30;99.90
12682;DHT22;6405;59.208;18.216;2022-12-20T05:58:28;1.30;99.90
12682;DHT22;6405;59.208;18.216;2022-12-20T06:00:54;1.30;99.90
12682;DHT22;6405;59.208;18.216;2022-12-20T06:03:21;1.30;99.90
12682;DHT22;6405;59.208;18.216;2022-12-20T06:05:48;1.30;99.90
12682;DHT22;6405;59.208;18.216;2022-12-20T06:08:14;1.30;99.90
12682;DHT22;6405;59.208;18.216;2022-12-20T06:10:42;1.30;99.90
12682;DHT22;6405;59.208;18.216;2022-12-20T06:13:09;1.30;99.90
12682;DHT22;6405;59.208;18.216;2022-12-20T06:15:36;1.30;99.90
12682;DHT22;6405;59.208;18.216;2022-12-20T06:18:03;1.30;99.90
12682;DHT22;6405;59.208;18.216;2022-12-20T06:20:30;1.30;99.90
12682;DHT22;6405;59.208;18.216;2022-12-20T06:22:57;1.30;99.90
12682;DHT22;6405;59.208;18.216;2022-12-20T06:25:24;1.30;99.90
12682;DHT22;6405;59.208;18.216;2022-12-20T06:27:51;1.30;99.90
12682;DHT22;6405;59.208;18.216;2022-12-20T06:30:18;1.30;99.90
12682;DHT22;6405;59.208;18.216;2022-12-20T06:32:45;1.30;99.90
12682;DHT22;6405;59.208;18.216;2022-12-20T06:35:13;1.30;99.90
12682;DHT22;6405;59.208;18.216;2022-12-20T06:37:40;1.30;99.90
12682;DHT22;6405;59.208;18.216;2022-12-20T06:40:09;1.30;99.90
12682;DHT22;6405;59.208;18.216;2022-12-20T06:42:35;1.30;99.90
12682;DHT22;6405;59.208;18.216;2022-12-20T06:45:03;1.30;99.90
12682;DHT22;6405;59.208;18.216;2022-12-20T06:47:32;1.30;99.90
12682;DHT22;6405;59.208;18.216;2022-12-20T06:49:59;1.30;99.90
12682;DHT22;6405;59.208;18.216;2022-12-20T06:52:26;1.30;99.90
12682;DHT22;6405;59.208;18.216;2022-12-20T06:54:53;1.30;99.90
12682;DHT22;6405;59.208;18.216;2022-12-20T06:57:20;1.30;99.90
12682;DHT22;6405;59.208;18.216;2022-12-20T06:59:46;1.30;99.90
12682;DHT22;6405;59.208;18.216;2022-12-20T07:02:13;1.30;99.90
12682;DHT22;6405;59.208;18.216;2022-12-20T07:04:40;1.30;99.90
12682;DHT22;6405;59.208;18.216;2022-12-20T07:07:07;1.30;99.90
12682;DHT22;6405;59.208;18.216;2022-12-20T07:09:33;1.30;99.90
12682;DHT22;6405;59.208;18.216;2022-12-20T07:12:01;1.30;99.90
12682;DHT22;6405;59.208;18.216;2022-12-20T07:14:28;1.30;99.90
12682;DHT22;6405;59.208;18.216;2022-12-20T07:16:55;1.30;99.90
12682;DHT22;6405;59.208;18.216;2022-12-20T07:19:21;1.30;99.90
12682;DHT22;6405;59.208;18.216;2022-12-20T07:21:48;1.30;99.90
12682;DHT22;6405;59.208;18.216;2022-12-20T07:24:15;1.30;99.90
12682;DHT22;6405;59.208;18.216;2022-12-20T07:26:44;1.30;99.90
12682;DHT22;6405;59.208;18.216;2022-12-20T07:29:14;1.30;99.90
12682;DHT22;6405;59.208;18.216;2022-12-20T07:31:41;1.30;99.90
12682;DHT22;6405;59.208;18.216;2022-12-20T07:34:08;1.30;99.90
12682;DHT22;6405;59.208;18.216;2022-12-20T07:36:33;1.30;99.90
12682;DHT22;6405;59.208;18.216;2022-12-20T07:39:00;1.40;99.90
12682;DHT22;6405;59.208;18.216;2022-12-20T07:41:29;1.50;99.90
12682;DHT22;6405;59.208;18.216;2022-12-20T07:43:58;1.30;99.90
12682;DHT22;6405;59.208;18.216;2022-12-20T07:46:26;1.40;99.90
12682;DHT22;6405;59.208;18.216;2022-12-20T07:48:54;1.40;99.90
12682;DHT22;6405;59.208;18.216;2022-12-20T07:51:31;1.40;99.90
12682;DHT22;6405;59.208;18.216;2022-12-20T07:54:03;1.40;99.90
12682;DHT22;6405;59.208;18.216;2022-12-20T07:56:32;1.40;99.90
12682;DHT22;6405;59.208;18.216;2022-12-20T07:59:01;1.40;99.90
12682;DHT22;6405;59.208;18.216;2022-12-20T08:01:29;1.40;99.90
12682;DHT22;6405;59.208;18.216;2022-12-20T08:04:04;1.40;99.90
12682;DHT22;6405;59.208;18.216;2022-12-20T08:06:35;1.50;99.90
12682;DHT22;6405;59.208;18.216;2022-12-20T08:09:04;1.50;99.90
12682;DHT22;6405;59.208;18.216;2022-12-20T08:11:34;1.50;99.90
12682;DHT22;6405;59.208;18.216;2022-12-20T08:14:04;1.50;99.90
12682;DHT22;6405;59.208;18.216;2022-12-20T08:16:30;1.50;99.90
12682;DHT22;6405;59.208;18.216;2022-12-20T08:18:58;1.50;99.90
12682;DHT22;6405;59.208;18.216;2022-12-20T08:21:25;1.50;99.90
12682;DHT22;6405;59.208;18.216;2022-12-20T08:23:52;1.60;99.90
12682;DHT22;6405;59.208;18.216;2022-12-20T08:26:20;1.60;99.90
12682;DHT22;6405;59.208;18.216;2022-12-20T08:28:46;1.60;99.90
12682;DHT22;6405;59.208;18.216;2022-12-20T08:31:14;1.60;99.90
12682;DHT22;6405;59.208;18.216;2022-12-20T08:33:41;1.60;99.90
12682;DHT22;6405;59.208;18.216;2022-12-20T08:36:09;1.70;99.90
12682;DHT22;6405;59.208;18.216;2022-12-20T08:38:37;1.70;99.90
12682;DHT22;6405;59.208;18.216;2022-12-20T08:41:10;1.70;99.90
12682;DHT22;6405;59.208;18.216;2022-12-20T08:43:38;1.70;99.90
12682;DHT22;6405;59.208;18.216;2022-12-20T08:46:05;1.70;99.90
12682;DHT22;6405;59.208;18.216;2022-12-20T08:48:32;1.70;99.90
12682;DHT22;6405;59.208;18.216;2022-12-20T08:51:01;1.70;99.90
12682;DHT22;6405;59.208;18.216;2022-12-20T08:53:29;1.80;99.90
12682;DHT22;6405;59.208;18.216;2022-12-20T08:56:15;1.80;99.90
12682;DHT22;6405;59.208;18.216;2022-12-20T08:58:42;1.80;99.90
12682;DHT22;6405;59.208;18.216;2022-12-20T09:01:12;1.80;99.90
12682;DHT22;6405;59.208;18.216;2022-12-20T09:03:39;1.80;99.90
12682;DHT22;6405;59.208;18.216;2022-12-20T09:06:17;1.80;99.90
12682;DHT22;6405;59.208;18.216;2022-12-20T09:08:46;1.90;99.90
12682;DHT22;6405;59.208;18.216;2022-12-20T09:11:16;1.90;99.90
12682;DHT22;6405;59.208;18.216;2022-12-20T09:13:45;1.90;99.90
12682;DHT22;6405;59.208;18.216;2022-12-20T09:16:16;1.90;99.90
12682;DHT22;6405;59.208;18.216;2022-12-20T09:18:51;1.90;99.90
12682;DHT22;6405;59.208;18.216;2022-12-20T09:21:17;1.90;99.90
12682;DHT22;6405;59.208;18.216;2022-12-20T09:23:44;2.00;99.90
12682;DHT22;6405;59.208;18.216;2022-12-20T09:26:13;2.00;99.90
12682;DHT22;6405;59.208;18.216;2022-12-20T09:28:41;2.00;99.90
12682;DHT22;6405;59.208;18.216;2022-12-20T09:31:11;2.00;99.90
12682;DHT22;6405;59.208;18.216;2022-12-20T09:33:39;2.00;99.90
12682;DHT22;6405;59.208;18.216;2022-12-20T09:36:06;2.20;99.90
12682;DHT22;6405;59.208;18.216;2022-12-20T09:38:36;2.10;99.90
12682;DHT22;6405;59.208;18.216;2022-12-20T09:41:05;2.00;99.90
12682;DHT22;6405;59.208;18.216;2022-12-20T09:43:33;2.00;99.90
12682;DHT22;6405;59.208;18.216;2022-12-20T09:46:02;2.00;99.90
12682;DHT22;6405;59.208;18.216;2022-12-20T09:48:32;2.20;99.90
12682;DHT22;6405;59.208;18.216;2022-12-20T09:56:39;2.10;99.90
12682;DHT22;6405;59.208;18.216;2022-12-20T09:59:10;2.10;99.90
12682;DHT22;6405;59.208;18.216;2022-12-20T10:01:37;2.10;99.90
12682;DHT22;6405;59.208;18.216;2022-12-20T10:04:25;2.10;99.90
12682;DHT22;6405;59.208;18.216;2022-12-20T10:10:09;2.10;99.90
12682;DHT22;6405;59.208;18.216;2022-12-20T10:15:42;2.20;99.90
12682;DHT22;6405;59.208;18.216;2022-12-20T10:22:13;2.20;99.90
12682;DHT22;6405;59.208;18.216;2022-12-20T10:24:17;2.20;99.90
12682;DHT22;6405;59.208;18.216;2022-12-20T10:26:45;2.20;99.90
12682;DHT22;6405;59.208;18.216;2022-12-20T10:29:14;2.30;99.90
12682;DHT22;6405;59.208;18.216;2022-12-20T10:31:42;2.30;99.90
12682;DHT22;6405;59.208;18.216;2022-12-20T10:34:09;2.30;99.90
12682;DHT22;6405;59.208;18.216;2022-12-20T10:36:37;2.30;99.90
12682;DHT22;6405;59.208;18.216;2022-12-20T10:39:06;2.30;99.90
12682;DHT22;6405;59.208;18.216;2022-12-20T10:41:48;2.40;99.90
12682;DHT22;6405;59.208;18.216;2022-12-20T10:44:29;2.40;99.90
12682;DHT22;6405;59.208;18.216;2022-12-20T10:46:57;2.30;99.90
12682;DHT22;6405;59.208;18.216;2022-12-20T10:49:38;2.40;99.90
12682;DHT22;6405;59.208;18.216;2022-12-20T10:54:35;2.40;99.90
12682;DHT22;6405;59.208;18.216;2022-12-20T10:59:52;2.40;99.90
12682;DHT22;6405;59.208;18.216;2022-12-20T11:02:32;2.50;99.90
12682;DHT22;6405;59.208;18.216;2022-12-20T11:05:17;2.50;99.90
12682;DHT22;6405;59.208;18.216;2022-12-20T11:08:13;2.40;99.90
12682;DHT22;6405;59.208;18.216;2022-12-20T11:10:41;2.50;99.90
12682;DHT22;6405;59.208;18.216;2022-12-20T11:13:20;2.50;99.90
12682;DHT22;6405;59.208;18.216;2022-12-20T11:15:49;2.50;99.90
12682;DHT22;6405;59.208;18.216;2022-12-20T11:18:44;2.50;99.90
12682;DHT22;6405;59.208;18.216;2022-12-20T11:24:00;2.50;99.90
12682;DHT22;6405;59.208;18.216;2022-12-20T11:26:44;2.50;99.90
12682;DHT22;6405;59.208;18.216;2022-12-20T11:35:10;2.60;99.90
12682;DHT22;6405;59.208;18.216;2022-12-20T11:37:50;2.50;99.90
12682;DHT22;6405;59.208;18.216;2022-12-20T11:40:47;2.60;99.90
12682;DHT22;6405;59.208;18.216;2022-12-20T11:48:44;2.60;99.90
12682;DHT22;6405;59.208;18.216;2022-12-20T11:51:34;2.60;99.90
12682;DHT22;6405;59.208;18.216;2022-12-20T11:54:25;2.60;99.90
12682;DHT22;6405;59.208;18.216;2022-12-20T11:57:01;2.70;99.90
12682;DHT22;6405;59.208;18.216;2022-12-20T11:59:47;2.70;99.90
12682;DHT22;6405;59.208;18.216;2022-12-20T12:02:53;2.70;99.90
12682;DHT22;6405;59.208;18.216;2022-12-20T12:05:44;2.70;99.90
12682;DHT22;6405;59.208;18.216;2022-12-20T12:08:17;2.70;99.90
12682;DHT22;6405;59.208;18.216;2022-12-20T12:11:07;2.60;99.90
12682;DHT22;6405;59.208;18.216;2022-12-20T12:13:39;2.70;99.90
12682;DHT22;6405;59.208;18.216;2022-12-20T12:16:15;2.70;99.90
12682;DHT22;6405;59.208;18.216;2022-12-20T12:18:43;2.70;99.90
12682;DHT22;6405;59.208;18.216;2022-12-20T12:21:51;2.70;99.90
12682;DHT22;6405;59.208;18.216;2022-12-20T12:24:42;2.70;99.90
12682;DHT22;6405;59.208;18.216;2022-12-20T12:27:21;2.70;99.90
12682;DHT22;6405;59.208;18.216;2022-12-20T12:29:48;2.70;99.90
12682;DHT22;6405;59.208;18.216;2022-12-20T12:32:36;2.80;99.90
12682;DHT22;6405;59.208;18.216;2022-12-20T12:35:45;2.80;99.90
12682;DHT22;6405;59.208;18.216;2022-12-20T12:44:04;2.80;99.90
12682;DHT22;6405;59.208;18.216;2022-12-20T12:46:23;2.80;99.90
12682;DHT22;6405;59.208;18.216;2022-12-20T12:49:05;2.90;99.90
12682;DHT22;6405;59.208;18.216;2022-12-20T12:51:38;2.90;99.90
12682;DHT22;6405;59.208;18.216;2022-12-20T12:56:38;2.90;99.90
12682;DHT22;6405;59.208;18.216;2022-12-20T13:01:51;2.90;99.90
12682;DHT22;6405;59.208;18.216;2022-12-20T13:11:53;2.90;99.90
12682;DHT22;6405;59.208;18.216;2022-12-20T13:16:49;3.00;99.90
12682;DHT22;6405;59.208;18.216;2022-12-20T13:21:47;3.00;99.90
12682;DHT22;6405;59.208;18.216;2022-12-20T13:40:53;3.00;99.90
12682;DHT22;6405;59.208;18.216;2022-12-20T13:45:56;2.90;99.90
12682;DHT22;6405;59.208;18.216;2022-12-20T13:48:27;2.90;99.90
12682;DHT22;6405;59.208;18.216;2022-12-20T13:50:57;3.00;99.90
12682;DHT22;6405;59.208;18.216;2022-12-20T13:53:26;3.00;99.90
12682;DHT22;6405;59.208;18.216;2022-12-20T13:55:54;3.10;99.90
12682;DHT22;6405;59.208;18.216;2022-12-20T13:58:30;3.10;99.90
12682;DHT22;6405;59.208;18.216;2022-12-20T14:01:05;3.10;99.90
12682;DHT22;6405;59.208;18.216;2022-12-20T14:03:39;3.10;99.90
12682;DHT22;6405;59.208;18.216;2022-12-20T14:06:11;3.10;99.90
12682;DHT22;6405;59.208;18.216;2022-12-20T14:08:43;3.10;99.90
12682;DHT22;6405;59.208;18.216;2022-12-20T14:11:13;3.10;99.90
12682;DHT22;6405;59.208;18.216;2022-12-20T14:13:41;3.10;99.90
12682;DHT22;6405;59.208;18.216;2022-12-20T14:16:16;3.10;99.90
12682;DHT22;6405;59.208;18.216;2022-12-20T14:18:49;3.10;99.90
12682;DHT22;6405;59.208;18.216;2022-12-20T14:21:17;3.10;99.90
12682;DHT22;6405;59.208;18.216;2022-12-20T14:23:47;3.10;99.90
12682;DHT22;6405;59.208;18.216;2022-12-20T14:26:55;3.10;99.90
12682;DHT22;6405;59.208;18.216;2022-12-20T14:29:18;3.10;99.90
12682;DHT22;6405;59.208;18.216;2022-12-20T14:31:46;3.10;99.90
12682;DHT22;6405;59.208;18.216;2022-12-20T14:34:24;3.10;99.90
12682;DHT22;6405;59.208;18.216;2022-12-20T14:36:51;3.10;99.90
12682;DHT22;6405;59.208;18.216;2022-12-20T14:42:01;3.10;99.90
12682;DHT22;6405;59.208;18.216;2022-12-20T14:44:30;3.10;99.90
12682;DHT22;6405;59.208;18.216;2022-12-20T14:47:03;3.10;99.90
12682;DHT22;6405;59.208;18.216;2022-12-20T14:49:36;3.20;99.90
12682;DHT22;6405;59.208;18.216;2022-12-20T14:57:30;3.20;99.90
12682;DHT22;6405;59.208;18.216;2022-12-20T15:00:25;3.20;99.90
12682;DHT22;6405;59.208;18.216;2022-12-20T15:08:12;3.20;99.90
12682;DHT22;6405;59.208;18.216;2022-12-20T15:10:42;3.20;99.90
12682;DHT22;6405;59.208;18.216;2022-12-20T15:13:12;3.20;99.90
12682;DHT22;6405;59.208;18.216;2022-12-20T15:15:40;3.20;99.90
12682;DHT22;6405;59.208;18.216;2022-12-20T15:18:14;3.20;99.90
12682;DHT22;6405;59.208;18.216;2022-12-20T15:20:42;3.10;99.90
12682;DHT22;6405;59.208;18.216;2022-12-20T15:23:15;3.10;99.90
12682;DHT22;6405;59.208;18.216;2022-12-20T15:25:42;3.20;99.90
12682;DHT22;6405;59.208;18.216;2022-12-20T15:28:15;3.10;99.90
12682;DHT22;6405;59.208;18.216;2022-12-20T15:30:44;3.10;99.90
12682;DHT22;6405;59.208;18.216;2022-12-20T15:33:24;3.10;99.90
12682;DHT22;6405;59.208;18.216;2022-12-20T15:35:52;3.00;99.90
12682;DHT22;6405;59.208;18.216;2022-12-20T15:38:24;3.00;99.90
12682;DHT22;6405;59.208;18.216;2022-12-20T15:40:53;3.00;99.90
12682;DHT22;6405;59.208;18.216;2022-12-20T15:43:22;3.00;99.90
12682;DHT22;6405;59.208;18.216;2022-12-20T15:45:51;3.00;99.90
12682;DHT22;6405;59.208;18.216;2022-12-20T15:48:22;2.90;99.90
12682;DHT22;6405;59.208;18.216;2022-12-20T15:50:53;2.90;99.90
12682;DHT22;6405;59.208;18.216;2022-12-20T15:53:26;2.80;99.90
12682;DHT22;6405;59.208;18.216;2022-12-20T15:55:55;2.80;99.90
12682;DHT22;6405;59.208;18.216;2022-12-20T15:58:23;2.70;99.90
12682;DHT22;6405;59.208;18.216;2022-12-20T16:00:58;2.70;99.90
12682;DHT22;6405;59.208;18.216;2022-12-20T16:03:30;2.70;99.90
12682;DHT22;6405;59.208;18.216;2022-12-20T16:05:57;2.70;99.90
12682;DHT22;6405;59.208;18.216;2022-12-20T16:08:24;2.70;99.90
12682;DHT22;6405;59.208;18.216;2022-12-20T16:10:52;2.70;99.90
12682;DHT22;6405;59.208;18.216;2022-12-20T16:13:22;2.70;99.90
12682;DHT22;6405;59.208;18.216;2022-12-20T16:15:51;2.70;99.90
12682;DHT22;6405;59.208;18.216;2022-12-20T16:18:18;2.70;99.90
12682;DHT22;6405;59.208;18.216;2022-12-20T16:20:45;2.70;99.90
12682;DHT22;6405;59.208;18.216;2022-12-20T16:23:20;2.70;99.90
12682;DHT22;6405;59.208;18.216;2022-12-20T16:25:50;2.70;99.90
12682;DHT22;6405;59.208;18.216;2022-12-20T16:28:17;2.60;99.90
12682;DHT22;6405;59.208;18.216;2022-12-20T16:30:45;2.70;99.90
12682;DHT22;6405;59.208;18.216;2022-12-20T16:33:20;2.70;99.90
12682;DHT22;6405;59.208;18.216;2022-12-20T16:35:47;2.60;99.90
12682;DHT22;6405;59.208;18.216;2022-12-20T16:38:15;2.70;99.90
12682;DHT22;6405;59.208;18.216;2022-12-20T16:40:44;2.60;99.90
12682;DHT22;6405;59.208;18.216;2022-12-20T16:43:13;2.70;99.90
12682;DHT22;6405;59.208;18.216;2022-12-20T16:45:42;2.70;99.90
12682;DHT22;6405;59.208;18.216;2022-12-20T16:48:09;2.70;99.90
12682;DHT22;6405;59.208;18.216;2022-12-20T16:50:37;2.60;99.90
12682;DHT22;6405;59.208;18.216;2022-12-20T16:53:12;2.60;99.90
12682;DHT22;6405;59.208;18.216;2022-12-20T16:55:39;2.60;99.90
12682;DHT22;6405;59.208;18.216;2022-12-20T16:58:06;2.60;99.90
12682;DHT22;6405;59.208;18.216;2022-12-20T17:00:34;2.60;99.90
12682;DHT22;6405;59.208;18.216;2022-12-20T17:03:03;2.70;99.90
12682;DHT22;6405;59.208;18.216;2022-12-20T17:05:33;2.70;99.90
12682;DHT22;6405;59.208;18.216;2022-12-20T17:08:01;2.80;99.90
12682;DHT22;6405;59.208;18.216;2022-12-20T17:10:29;2.70;99.90
12682;DHT22;6405;59.208;18.216;2022-12-20T17:12:57;2.80;99.90
12682;DHT22;6405;59.208;18.216;2022-12-20T17:15:28;2.80;99.90
12682;DHT22;6405;59.208;18.216;2022-12-20T17:17:55;2.80;99.90
12682;DHT22;6405;59.208;18.216;2022-12-20T17:20:22;2.80;99.90
12682;DHT22;6405;59.208;18.216;2022-12-20T17:22:53;2.90;99.90
12682;DHT22;6405;59.208;18.216;2022-12-20T17:25:26;2.90;99.90
12682;DHT22;6405;59.208;18.216;2022-12-20T17:27:54;2.90;99.90
12682;DHT22;6405;59.208;18.216;2022-12-20T17:30:23;2.90;99.90
12682;DHT22;6405;59.208;18.216;2022-12-20T17:32:51;3.00;99.90
12682;DHT22;6405;59.208;18.216;2022-12-20T17:35:24;3.00;99.90
12682;DHT22;6405;59.208;18.216;2022-12-20T17:37:53;3.00;99.90
12682;DHT22;6405;59.208;18.216;2022-12-20T17:40:22;3.10;99.90
12682;DHT22;6405;59.208;18.216;2022-12-20T17:42:50;3.20;99.90
12682;DHT22;6405;59.208;18.216;2022-12-20T17:47:48;3.20;99.90
12682;DHT22;6405;59.208;18.216;2022-12-20T17:50:15;3.20;99.90
12682;DHT22;6405;59.208;18.216;2022-12-20T17:52:44;3.30;99.90
12682;DHT22;6405;59.208;18.216;2022-12-20T17:55:26;3.30;99.90
12682;DHT22;6405;59.208;18.216;2022-12-20T17:57:53;3.40;99.90